createdAt,value
2023-04-11T00:00:32.482Z,2.50
2023-04-11T00:03:00.700Z,1.65
2023-04-11T00:05:28.929Z,1.48
2023-04-11T00:07:56.590Z,1.67
2023-04-11T00:10:25.660Z,2.00
2023-04-11T00:12:56.366Z,2.30
2023-04-11T00:15:26.603Z,1.23
2023-04-11T00:17:55.034Z,2.23
2023-04-11T00:20:23.155Z,1.40
2023-04-11T00:22:50.974Z,2.30
2023-04-11T00:25:18.592Z,1.60
2023-04-11T00:27:47.574Z,1.80
2023-04-11T00:30:15.555Z,1.80
2023-04-11T00:32:46.142Z,1.85
2023-04-11T00:35:13.941Z,1.93
2023-04-11T00:37:44.261Z,1.63
2023-04-11T00:40:14.084Z,2.07
2023-04-11T00:42:41.782Z,1.25
2023-04-11T00:45:11.918Z,2.28
2023-04-11T00:47:39.881Z,1.80
2023-04-11T00:50:09.042Z,2.42
2023-04-11T00:52:39.055Z,3.40
2023-04-11T00:55:08.258Z,1.67
2023-04-11T00:57:35.998Z,2.33
2023-04-11T01:00:04.731Z,1.92
2023-04-11T01:02:33.894Z,2.60
2023-04-11T01:05:02.164Z,2.22
2023-04-11T01:07:32.134Z,2.40
2023-04-11T01:10:01.364Z,2.00
2023-04-11T01:12:30.348Z,2.95
2023-04-11T01:14:58.620Z,2.42
2023-04-11T01:17:27.191Z,2.13
2023-04-11T01:19:56.437Z,1.83
2023-04-11T01:22:25.625Z,1.90
2023-04-11T01:24:54.848Z,2.10
2023-04-11T01:27:22.593Z,2.70
2023-04-11T01:29:51.058Z,1.90
2023-04-11T01:32:18.661Z,3.83
2023-04-11T01:34:49.493Z,3.08
2023-04-11T01:37:17.453Z,3.03
2023-04-11T01:39:45.121Z,2.38
2023-04-11T01:42:14.963Z,2.53
2023-04-11T01:44:43.476Z,1.70
2023-04-11T01:47:11.316Z,3.30
2023-04-11T01:49:39.258Z,3.72
2023-04-11T01:52:07.026Z,1.58
2023-04-11T01:54:34.719Z,1.17
2023-04-11T01:57:02.395Z,2.70
2023-04-11T01:59:31.426Z,1.70
2023-04-11T02:01:59.418Z,3.13
2023-04-11T02:04:27.596Z,1.92
2023-04-11T02:06:55.321Z,2.53
2023-04-11T02:09:22.991Z,2.13
2023-04-11T02:11:50.588Z,2.00
2023-04-11T02:14:20.652Z,2.63
2023-04-11T02:16:54.175Z,2.83
2023-04-11T02:19:23.261Z,2.20
2023-04-11T02:21:50.946Z,2.88
2023-04-11T02:24:18.750Z,3.13
2023-04-11T02:26:46.452Z,2.30
2023-04-11T02:29:14.193Z,2.55
2023-04-11T02:31:42.061Z,3.30
2023-04-11T02:34:11.214Z,3.20
2023-04-11T02:36:38.847Z,4.63
2023-04-11T02:39:07.189Z,2.65
2023-04-11T02:41:34.835Z,3.65
2023-04-11T02:44:02.442Z,2.58
2023-04-11T02:46:30.119Z,2.20
2023-04-11T02:48:57.954Z,4.22
2023-04-11T02:51:27.168Z,3.70
2023-04-11T02:53:54.859Z,2.25
2023-04-11T02:56:23.208Z,1.83
2023-04-11T02:58:52.600Z,2.17
2023-04-11T03:01:21.590Z,3.03
2023-04-11T03:03:49.579Z,2.17
2023-04-11T03:06:17.428Z,2.75
2023-04-11T03:08:46.723Z,3.55
2023-04-11T03:11:14.427Z,2.13
2023-04-11T03:13:43.673Z,2.70
2023-04-11T03:16:13.917Z,2.00
2023-04-11T03:18:41.743Z,3.95
2023-04-11T03:21:10.828Z,3.88
2023-04-11T03:23:38.602Z,2.47
2023-04-11T03:26:08.441Z,2.80
2023-04-11T03:28:36.185Z,1.90
2023-04-11T03:31:04.018Z,2.90
2023-04-11T03:33:31.830Z,2.30
2023-04-11T03:35:59.626Z,3.95
2023-04-11T03:38:27.462Z,3.10
2023-04-11T03:40:55.291Z,3.25
2023-04-11T03:43:24.307Z,2.28
2023-04-11T03:45:53.394Z,3.05
2023-04-11T03:48:21.211Z,2.67
2023-04-11T03:50:48.941Z,2.42
2023-04-11T03:53:16.636Z,3.13
2023-04-11T03:55:44.319Z,3.80
2023-04-11T03:58:12.407Z,3.45
2023-04-11T04:00:41.676Z,1.98
2023-04-11T04:03:09.622Z,2.78
2023-04-11T04:05:37.657Z,1.52
2023-04-11T04:08:06.006Z,2.50
2023-04-11T04:10:33.782Z,2.33
2023-04-11T04:13:01.439Z,2.33
2023-04-11T04:15:29.259Z,1.85
2023-04-11T04:17:58.990Z,3.25
2023-04-11T04:20:26.718Z,3.13
2023-04-11T04:22:55.574Z,2.03
2023-04-11T04:25:25.668Z,1.77
2023-04-11T04:27:58.360Z,3.20
2023-04-11T04:30:28.721Z,2.70
2023-04-11T04:32:59.265Z,4.97
2023-04-11T04:35:27.889Z,1.98
2023-04-11T04:37:56.167Z,3.95
2023-04-11T04:40:23.930Z,3.30
2023-04-11T04:42:58.854Z,2.47
2023-04-11T04:45:26.742Z,3.10
2023-04-11T04:47:55.062Z,2.80
2023-04-11T04:50:24.138Z,2.35
2023-04-11T04:52:52.907Z,4.50
2023-04-11T04:55:22.025Z,4.35
2023-04-11T04:57:49.663Z,2.83
2023-04-11T05:00:19.418Z,2.03
2023-04-11T05:02:49.497Z,3.85
2023-04-11T05:05:20.050Z,4.28
2023-04-11T05:07:49.356Z,5.15
2023-04-11T05:10:17.524Z,5.15
2023-04-11T05:12:45.596Z,4.13
2023-04-11T05:15:15.159Z,3.80
2023-04-11T05:17:43.568Z,4.93
2023-04-11T05:20:13.759Z,5.63
2023-04-11T05:22:42.240Z,5.43
2023-04-11T05:25:11.999Z,6.00
2023-04-11T05:27:39.817Z,6.55
2023-04-11T05:30:08.856Z,5.95
2023-04-11T05:32:36.655Z,4.40
2023-04-11T05:35:04.539Z,8.20
2023-04-11T05:37:32.324Z,5.25
2023-04-11T05:40:01.631Z,4.70
2023-04-11T05:42:30.697Z,5.38
2023-04-11T05:44:58.384Z,7.38
2023-04-11T05:47:26.516Z,6.30
2023-04-11T05:49:54.313Z,5.47
2023-04-11T05:52:22.318Z,4.90
2023-04-11T05:54:50.685Z,5.95
2023-04-11T05:57:18.866Z,6.22
2023-04-11T05:59:50.098Z,4.88
2023-04-11T06:02:18.093Z,7.28
2023-04-11T06:04:46.060Z,8.15
2023-04-11T06:07:14.079Z,5.90
2023-04-11T06:09:42.680Z,7.00
2023-04-11T06:12:10.988Z,8.27
2023-04-11T06:14:40.600Z,6.72
2023-04-11T06:17:09.833Z,11.18
2023-04-11T06:19:37.498Z,10.35
2023-04-11T06:22:05.262Z,7.78
2023-04-11T06:24:37.125Z,5.70
2023-04-11T06:27:06.010Z,8.10
2023-04-11T06:29:33.853Z,7.13
2023-04-11T06:32:01.570Z,8.88
2023-04-11T06:34:30.769Z,9.10
2023-04-11T06:36:58.530Z,8.30
2023-04-11T06:39:26.806Z,10.07
2023-04-11T06:41:54.406Z,7.65
2023-04-11T06:44:22.108Z,7.55
2023-04-11T06:46:49.845Z,9.32
2023-04-11T06:49:19.020Z,7.68
2023-04-11T06:51:50.077Z,11.35
2023-04-11T06:54:19.792Z,9.95
2023-04-11T06:56:47.653Z,9.23
2023-04-11T06:59:15.747Z,8.20
2023-04-11T07:01:43.747Z,7.82
2023-04-11T07:04:11.677Z,9.05
2023-04-11T07:06:39.977Z,9.27
2023-04-11T07:09:10.559Z,6.53
2023-04-11T07:11:38.569Z,7.97
2023-04-11T07:14:06.491Z,9.35
2023-04-11T07:16:34.545Z,8.10
2023-04-11T07:19:03.239Z,8.15
2023-04-11T07:21:32.464Z,9.40
2023-04-11T07:24:01.101Z,8.15
2023-04-11T07:26:32.600Z,8.88
2023-04-11T07:29:00.877Z,9.20
2023-04-11T07:31:28.839Z,8.43
2023-04-11T07:33:56.847Z,7.80
2023-04-11T07:36:24.682Z,8.50
2023-04-11T07:38:53.123Z,8.77
2023-04-11T07:41:21.028Z,7.88
2023-04-11T07:43:50.093Z,13.63
2023-04-11T07:46:17.821Z,6.53
2023-04-11T07:48:45.538Z,6.70
2023-04-11T07:51:13.650Z,6.90
2023-04-11T07:53:41.469Z,9.00
2023-04-11T07:56:09.987Z,6.30
2023-04-11T07:58:37.758Z,6.05
2023-04-11T08:01:09.079Z,5.20
2023-04-11T08:03:37.050Z,7.07
2023-04-11T08:06:05.672Z,5.78
2023-04-11T08:08:33.830Z,7.13
2023-04-11T08:11:01.566Z,6.53
2023-04-11T08:13:29.605Z,6.55
2023-04-11T08:15:57.356Z,7.97
2023-04-11T08:18:26.923Z,8.38
2023-04-11T08:20:54.636Z,5.93
2023-04-11T08:23:23.439Z,6.63
2023-04-11T08:25:51.702Z,8.70
2023-04-11T08:28:20.955Z,8.05
2023-04-11T08:30:48.728Z,7.03
2023-04-11T08:33:16.467Z,7.60
2023-04-11T08:35:45.634Z,7.43
2023-04-11T08:38:13.281Z,7.22
2023-04-11T08:40:40.948Z,8.45
2023-04-11T08:43:12.231Z,8.77
2023-04-11T08:45:40.963Z,9.40
2023-04-11T08:48:09.204Z,6.50
2023-04-11T08:50:37.039Z,9.05
2023-04-11T08:53:08.377Z,8.77
2023-04-11T08:55:36.494Z,7.25
2023-04-11T08:58:04.441Z,7.95
2023-04-11T09:00:32.631Z,7.57
2023-04-11T09:03:02.246Z,7.20
2023-04-11T09:05:31.751Z,7.43
2023-04-11T09:08:00.980Z,9.35
2023-04-11T09:10:30.311Z,7.53
2023-04-11T09:12:58.619Z,7.97
2023-04-11T09:15:28.761Z,5.80
2023-04-11T09:18:00.373Z,7.80
2023-04-11T09:20:30.401Z,9.07
2023-04-11T09:22:59.989Z,6.50
2023-04-11T09:25:28.459Z,6.45
2023-04-11T09:28:13.309Z,9.50
2023-04-11T09:30:51.196Z,6.78
2023-04-11T09:33:22.309Z,5.28
2023-04-11T09:35:53.273Z,4.57
2023-04-11T09:38:32.534Z,5.75
2023-04-11T09:41:01.628Z,6.13
2023-04-11T09:43:49.343Z,6.38
2023-04-11T09:46:18.697Z,6.00
2023-04-11T09:48:47.298Z,7.43
2023-04-11T09:51:24.371Z,6.50
2023-04-11T09:54:03.366Z,7.15
2023-04-11T09:56:34.168Z,8.00
2023-04-11T09:59:04.728Z,7.03
2023-04-11T10:01:33.250Z,7.13
2023-04-11T10:04:01.825Z,7.13
2023-04-11T10:06:34.255Z,5.77
2023-04-11T10:09:10.845Z,5.55
2023-04-11T10:11:41.421Z,5.20
2023-04-11T10:14:10.716Z,5.97
2023-04-11T10:17:16.925Z,7.10
2023-04-11T10:19:47.964Z,7.97
2023-04-11T10:22:49.787Z,5.57
2023-04-11T10:25:19.834Z,6.63
2023-04-11T10:27:48.812Z,6.72
2023-04-11T10:30:20.301Z,7.03
2023-04-11T10:33:12.003Z,6.13
2023-04-11T10:35:57.894Z,5.33
2023-04-11T10:38:47.017Z,5.68
2023-04-11T10:41:32.635Z,6.50
2023-04-11T10:44:21.375Z,4.72
2023-04-11T10:46:53.685Z,9.38
2023-04-11T10:49:36.518Z,4.17
2023-04-11T10:52:21.646Z,4.93
2023-04-11T10:54:50.821Z,4.78
2023-04-11T10:57:19.528Z,4.65
2023-04-11T11:00:16.421Z,5.03
2023-04-11T11:02:46.870Z,3.95
2023-04-11T11:05:19.507Z,4.70
2023-04-11T11:07:51.755Z,4.25
2023-04-11T11:10:39.609Z,4.68
2023-04-11T11:13:07.542Z,6.82
2023-04-11T11:15:38.060Z,3.42
2023-04-11T11:18:16.330Z,5.25
2023-04-11T11:20:44.040Z,4.32
2023-04-11T11:23:12.366Z,5.28
2023-04-11T11:25:40.143Z,6.22
2023-04-11T11:28:09.488Z,4.97
2023-04-11T11:30:38.476Z,5.05
2023-04-11T11:33:18.794Z,10.05
2023-04-11T11:35:55.075Z,10.70
2023-04-11T11:38:26.819Z,3.75
2023-04-11T11:40:55.871Z,3.85
2023-04-11T11:43:23.891Z,5.35
2023-04-11T11:46:09.171Z,5.18
2023-04-11T11:48:38.769Z,5.55
2023-04-11T11:51:07.190Z,4.50
2023-04-11T11:53:35.044Z,5.43
2023-04-11T11:56:13.825Z,4.22
2023-04-11T11:58:45.769Z,5.55
2023-04-11T12:01:17.042Z,4.88
2023-04-11T12:03:51.123Z,6.03
2023-04-11T12:06:19.319Z,3.78
2023-04-11T12:08:51.798Z,4.00
2023-04-11T12:11:20.522Z,5.35
2023-04-11T12:13:53.443Z,4.90
2023-04-11T12:16:23.809Z,5.32
2023-04-11T12:18:53.048Z,5.22
2023-04-11T12:21:22.789Z,4.70
2023-04-11T12:23:50.556Z,4.25
2023-04-11T12:26:20.041Z,5.47
2023-04-11T12:28:47.860Z,5.20
2023-04-11T12:31:16.155Z,5.07
2023-04-11T12:33:44.500Z,5.07
2023-04-11T12:36:14.439Z,5.43
2023-04-11T12:38:42.277Z,6.13
2023-04-11T12:43:41.929Z,4.53
2023-04-11T12:46:09.660Z,4.72
2023-04-11T12:48:37.550Z,3.00
2023-04-11T12:51:05.905Z,2.97
2023-04-11T12:53:35.075Z,3.55
2023-04-11T12:56:04.956Z,4.90
2023-04-11T12:58:33.123Z,3.88
2023-04-11T13:01:01.065Z,3.65
2023-04-11T13:03:32.432Z,4.65
2023-04-11T13:06:00.989Z,4.30
2023-04-11T13:08:28.606Z,6.13
2023-04-11T13:10:57.611Z,4.55
2023-04-11T13:13:25.344Z,3.53
2023-04-11T13:15:53.437Z,4.72
2023-04-11T13:18:21.672Z,3.75
2023-04-11T13:20:49.549Z,3.88
2023-04-11T13:23:18.982Z,4.53
2023-04-11T13:25:46.657Z,2.85
2023-04-11T13:28:15.765Z,3.50
2023-04-11T13:30:43.481Z,4.15
2023-04-11T13:33:11.293Z,5.72
2023-04-11T13:35:39.042Z,3.90
2023-04-11T13:38:06.937Z,5.10
2023-04-11T13:40:35.439Z,3.80
2023-04-11T13:43:03.204Z,3.67
2023-04-11T13:45:32.525Z,3.83
2023-04-11T13:48:00.363Z,4.03
2023-04-11T13:50:28.168Z,5.15
2023-04-11T13:52:57.088Z,3.35
2023-04-11T13:55:24.881Z,4.47
2023-04-11T13:57:54.361Z,4.20
2023-04-11T14:00:23.505Z,4.45
2023-04-11T14:02:52.860Z,4.07
2023-04-11T14:05:20.710Z,6.05
2023-04-11T14:07:48.413Z,4.93
2023-04-11T14:10:16.445Z,5.87
2023-04-11T14:12:44.132Z,4.65
2023-04-11T14:15:12.563Z,4.55
2023-04-11T14:17:40.539Z,6.30
2023-04-11T14:20:13.739Z,5.75
2023-04-11T14:22:42.072Z,5.65
2023-04-11T14:25:11.507Z,5.15
2023-04-11T14:27:41.255Z,6.53
2023-04-11T14:30:10.386Z,5.05
2023-04-11T14:32:38.422Z,4.53
2023-04-11T14:35:08.420Z,5.97
2023-04-11T14:37:37.602Z,4.40
2023-04-11T14:40:07.721Z,4.95
2023-04-11T14:42:35.554Z,4.90
2023-04-11T14:45:03.393Z,5.28
2023-04-11T14:47:31.260Z,5.78
2023-04-11T14:49:59.418Z,5.50
2023-04-11T14:52:27.620Z,10.23
2023-04-11T14:54:56.841Z,7.45
2023-04-11T14:57:24.652Z,6.33
2023-04-11T14:59:52.372Z,8.73
2023-04-11T15:02:20.291Z,6.90
2023-04-11T15:04:48.505Z,8.35
2023-04-11T15:07:16.155Z,5.60
2023-04-11T15:09:44.113Z,7.07
2023-04-11T15:12:13.210Z,4.40
2023-04-11T15:14:41.201Z,5.72
2023-04-11T15:17:08.889Z,6.15
2023-04-11T15:19:36.674Z,6.23
2023-04-11T15:22:04.549Z,17.40
2023-04-11T15:24:32.431Z,18.25
2023-04-11T15:27:00.976Z,8.25
2023-04-11T15:29:30.224Z,7.43
2023-04-11T15:31:57.908Z,5.50
2023-04-11T15:34:26.429Z,5.95
2023-04-11T15:36:54.117Z,23.48
2023-04-11T15:39:21.887Z,10.75
2023-04-11T15:41:49.630Z,7.50
2023-04-11T15:44:17.326Z,4.65
2023-04-11T15:46:48.935Z,7.88
2023-04-11T16:02:02.926Z,4.25
2023-04-11T16:04:30.720Z,5.85
2023-04-11T16:06:58.771Z,5.35
2023-04-11T16:09:27.408Z,6.53
2023-04-11T16:11:56.664Z,6.75
2023-04-11T16:14:24.913Z,4.40
2023-04-11T16:16:53.451Z,4.20
2023-04-11T16:19:22.511Z,4.40
2023-04-11T16:21:50.119Z,5.65
2023-04-11T16:24:18.861Z,3.88
2023-04-11T16:26:46.653Z,14.47
2023-04-11T16:29:14.355Z,9.32
2023-04-11T16:31:42.020Z,6.13
2023-04-11T16:34:10.008Z,6.78
2023-04-11T16:36:39.260Z,5.35
2023-04-11T16:39:07.239Z,6.05
2023-04-11T16:41:36.361Z,4.43
2023-04-11T16:44:05.786Z,7.65
2023-04-11T16:46:33.730Z,5.70
2023-04-11T16:49:01.543Z,6.72
2023-04-11T16:51:29.354Z,4.53
2023-04-11T16:53:58.526Z,2.97
2023-04-11T16:56:28.896Z,12.55
2023-04-11T16:58:56.979Z,7.25
2023-04-11T17:01:24.801Z,8.23
2023-04-11T17:03:53.727Z,9.63
2023-04-11T17:06:21.625Z,5.50
2023-04-11T17:08:49.332Z,6.10
2023-04-11T17:11:18.603Z,6.32
2023-04-11T17:13:47.903Z,4.57
2023-04-11T17:16:16.186Z,4.25
2023-04-11T17:18:44.211Z,6.70
2023-04-11T17:21:12.335Z,5.13
2023-04-11T17:23:43.508Z,6.43
2023-04-11T17:26:13.108Z,4.43
2023-04-11T17:28:42.339Z,5.20
2023-04-11T17:31:13.329Z,4.00
2023-04-11T17:33:41.251Z,4.57
2023-04-11T17:36:10.116Z,4.80
2023-04-11T17:38:38.504Z,4.20
2023-04-11T17:41:14.206Z,6.10
2023-04-11T17:43:44.784Z,6.35
2023-04-11T17:46:12.880Z,4.57
2023-04-11T17:48:40.724Z,5.78
2023-04-11T17:51:08.389Z,6.18
2023-04-11T17:53:36.150Z,4.55
2023-04-11T17:56:04.457Z,4.63
2023-04-11T17:58:32.205Z,6.20
2023-04-11T18:01:03.529Z,7.35
2023-04-11T18:03:35.085Z,5.10
2023-04-11T18:06:03.459Z,6.47
2023-04-11T18:08:49.249Z,5.13
2023-04-11T18:11:18.005Z,8.70
2023-04-11T18:13:48.272Z,5.25
2023-04-11T18:16:18.737Z,4.72
2023-04-11T18:18:47.057Z,6.18
2023-04-11T18:21:15.825Z,7.93
2023-04-11T18:23:43.593Z,6.18
2023-04-11T18:26:11.670Z,6.25
2023-04-11T18:28:39.448Z,7.05
2023-04-11T18:31:07.162Z,7.13
2023-04-11T18:33:41.365Z,8.35
2023-04-11T18:36:10.354Z,5.47
2023-04-11T18:38:38.177Z,6.30
2023-04-11T18:41:07.860Z,7.73
2023-04-11T18:43:37.604Z,7.28
2023-04-11T18:46:07.584Z,6.55
2023-04-11T18:48:36.810Z,8.00
2023-04-11T18:51:05.335Z,5.22
2023-04-11T18:53:34.892Z,6.70
2023-04-11T18:56:03.555Z,8.18
2023-04-11T18:58:33.267Z,5.90
2023-04-11T19:01:14.093Z,7.82
2023-04-11T19:03:45.931Z,6.15
2023-04-11T19:06:14.469Z,5.32
2023-04-11T19:08:42.275Z,6.32
2023-04-11T19:11:10.108Z,9.67
2023-04-11T19:13:37.862Z,6.10
2023-04-11T19:16:06.420Z,6.35
2023-04-11T19:18:34.222Z,6.22
2023-04-11T19:21:03.514Z,8.40
2023-04-11T19:23:31.311Z,7.18
2023-04-11T19:26:00.686Z,6.13
2023-04-11T19:28:28.620Z,7.45
2023-04-11T19:30:56.493Z,8.02
2023-04-11T19:33:26.090Z,7.20
2023-04-11T19:35:54.250Z,7.50
2023-04-11T19:38:24.021Z,8.50
2023-04-11T19:40:51.882Z,7.20
2023-04-11T19:43:19.807Z,6.93
2023-04-11T19:45:47.954Z,6.43
2023-04-11T19:48:16.241Z,5.85
2023-04-11T19:50:44.034Z,7.93
2023-04-11T19:53:11.915Z,8.25
2023-04-11T19:55:41.202Z,5.63
2023-04-11T19:58:08.913Z,9.02
2023-04-11T20:00:38.539Z,6.75
2023-04-11T20:03:08.040Z,7.15
2023-04-11T20:05:35.977Z,5.90
2023-04-11T20:08:03.708Z,5.63
2023-04-11T20:10:31.768Z,6.75
2023-04-11T20:13:02.358Z,7.93
2023-04-11T20:15:30.393Z,6.20
2023-04-11T20:17:58.593Z,6.20
2023-04-11T20:20:27.714Z,8.25
2023-04-11T20:22:55.609Z,6.95
2023-04-11T20:25:23.953Z,5.88
2023-04-11T20:27:51.696Z,7.25
2023-04-11T20:30:21.149Z,6.25
2023-04-11T20:32:48.908Z,6.50
2023-04-11T20:35:16.921Z,7.72
2023-04-11T20:37:44.696Z,7.55
2023-04-11T20:40:13.795Z,7.10
2023-04-11T20:42:42.645Z,7.30
2023-04-11T20:45:12.266Z,5.47
2023-04-11T20:47:41.919Z,7.00
2023-04-11T20:50:13.863Z,7.40
2023-04-11T20:52:43.310Z,8.83
2023-04-11T20:55:11.729Z,7.82
2023-04-11T20:57:39.415Z,8.98
2023-04-11T21:00:12.625Z,8.30
2023-04-11T21:02:44.324Z,9.40
2023-04-11T21:05:13.312Z,9.48
2023-04-11T21:07:42.010Z,8.10
2023-04-11T21:10:10.837Z,7.27
2023-04-11T21:12:38.813Z,8.25
2023-04-11T21:15:08.964Z,8.05
2023-04-11T21:17:39.237Z,9.60
2023-04-11T21:20:10.314Z,6.68
2023-04-11T21:22:40.142Z,8.80
2023-04-11T21:25:09.521Z,8.15
2023-04-11T21:27:37.196Z,8.48
2023-04-11T21:30:06.197Z,8.45
2023-04-11T21:32:33.945Z,7.20
2023-04-11T21:35:01.953Z,8.73
2023-04-11T21:37:30.959Z,6.20
2023-04-11T21:39:58.585Z,7.78
2023-04-11T21:42:26.248Z,7.20
2023-04-11T21:44:53.928Z,10.70
2023-04-11T21:47:22.625Z,6.95
2023-04-11T21:49:50.397Z,8.70
2023-04-11T21:52:18.063Z,8.15
2023-04-11T21:54:47.592Z,7.72
2023-04-11T21:57:15.265Z,8.95
2023-04-11T21:59:43.054Z,8.38
2023-04-11T22:02:10.773Z,10.35
2023-04-11T22:04:51.342Z,7.45
2023-04-11T22:07:24.800Z,7.28
2023-04-11T22:09:58.382Z,6.57
2023-04-11T22:12:28.364Z,6.35
2023-04-11T22:14:57.085Z,6.05
2023-04-11T22:17:24.901Z,9.40
2023-04-11T22:19:52.549Z,7.05
2023-04-11T22:22:20.278Z,10.57
2023-04-11T22:24:47.954Z,7.40
2023-04-11T22:27:18.201Z,8.50
2023-04-11T22:29:46.588Z,7.50
2023-04-11T22:32:14.270Z,5.93
2023-04-11T22:34:41.976Z,6.90
2023-04-11T22:37:09.659Z,7.70
2023-04-11T22:39:37.404Z,7.85
2023-04-11T22:42:06.707Z,7.03
2023-04-11T22:44:35.834Z,7.60
2023-04-11T22:47:07.012Z,7.82
2023-04-11T22:49:40.234Z,7.73
2023-04-11T22:52:08.268Z,9.77
2023-04-11T22:54:36.416Z,8.52
2023-04-11T22:57:04.391Z,6.53
2023-04-11T22:59:32.042Z,7.18
2023-04-11T23:02:01.061Z,7.57
2023-04-11T23:04:28.789Z,8.07
2023-04-11T23:06:56.680Z,8.02
2023-04-11T23:09:24.480Z,6.78
2023-04-11T23:11:53.344Z,8.00
2023-04-11T23:14:22.208Z,7.70
2023-04-11T23:16:50.152Z,6.68
2023-04-11T23:19:19.874Z,8.00
2023-04-11T23:21:48.917Z,9.52
2023-04-11T23:24:16.718Z,5.85
2023-04-11T23:26:44.429Z,6.13
2023-04-11T23:29:12.164Z,6.45
2023-04-11T23:31:39.827Z,5.78
2023-04-11T23:34:07.470Z,7.70
2023-04-11T23:36:36.666Z,6.47
2023-04-11T23:39:05.599Z,6.22
2023-04-11T23:41:33.324Z,4.85
2023-04-11T23:44:01.106Z,7.88
2023-04-11T23:46:28.877Z,6.20
2023-04-11T23:48:56.588Z,5.50
2023-04-11T23:51:24.213Z,6.80
2023-04-11T23:53:53.243Z,6.28
2023-04-11T23:56:22.960Z,7.50
2023-04-11T23:58:50.590Z,6.05
